Time;durP1;ratioP1;P1;durP2;ratioP2;P2;SDS_P1;SDS_P2;PMS_P1;PMS_P2;Temp;Humidity;BMP_temperature;BMP_pressure;BME280_temperature;BME280_humidity;BME280_pressure;Samples;Min_cycle;Max_cycle;Signal;HPM_P1;HPM_P2
2021/11/28 00:01:05;;;;;;;35.72;22.52;;;;;;;;;;5056113;28;20032;-84
2021/11/28 00:03:33;;;;;;;36.45;22.30;;;;;;;;;;5057549;28;20355;-84
2021/11/28 00:06:01;;;;;;;34.78;21.42;;;;;;;;;;5056120;28;20107;-84
2021/11/28 00:13:47;;;;;;;39.17;22.98;;;;;;;;;;5061187;28;20076;-84
2021/11/28 00:16:13;;;;;;;35.88;21.67;;;;;;;;;;5061439;28;20104;-84
2021/11/28 00:18:39;;;;;;;35.97;20.90;;;;;;;;;;5059979;28;20025;-84
2021/11/28 00:21:06;;;;;;;32.20;21.25;;;;;;;;;;5061167;28;20025;-84
2021/11/28 00:26:35;;;;;;;31.85;20.58;;;;;;;;;;5061019;28;20059;-84
2021/11/28 00:29:03;;;;;;;30.85;20.60;;;;;;;;;;5061187;28;20100;-85
2021/11/28 00:31:29;;;;;;;33.92;20.63;;;;;;;;;;5060944;28;20039;-84
2021/11/28 00:33:55;;;;;;;35.63;22.27;;;;;;;;;;5059822;28;20024;-84
2021/11/28 00:36:22;;;;;;;34.45;21.48;;;;;;;;;;5060723;28;20029;-84
2021/11/28 00:39:25;;;;;;;35.38;21.85;;;;;;;;;;5060935;28;20055;-84
2021/11/28 00:41:51;;;;;;;32.40;21.25;;;;;;;;;;5060553;28;20406;-84
2021/11/28 00:44:17;;;;;;;28.73;20.40;;;;;;;;;;5060601;28;20399;-84
2021/11/28 00:46:43;;;;;;;29.05;21.02;;;;;;;;;;5060802;28;20323;-84
2021/11/28 00:49:22;;;;;;;29.83;20.05;;;;;;;;;;5059547;28;20045;-84
2021/11/28 00:51:50;;;;;;;29.73;21.13;;;;;;;;;;5059624;28;20037;-84
2021/11/28 00:54:17;;;;;;;36.83;23.15;;;;;;;;;;5059326;28;20432;-83
2021/11/28 00:56:43;;;;;;;37.30;23.38;;;;;;;;;;5059337;28;20163;-84
2021/11/28 00:59:10;;;;;;;32.20;21.35;;;;;;;;;;5059400;28;20028;-84
2021/11/28 01:01:36;;;;;;;30.02;20.65;;;;;;;;;;5060474;28;20067;-84
2021/11/28 01:04:02;;;;;;;31.88;20.20;;;;;;;;;;5059298;28;20029;-84
2021/11/28 01:06:29;;;;;;;31.25;20.95;;;;;;;;;;5060467;28;20040;-83
2021/11/28 01:08:55;;;;;;;30.98;21.10;;;;;;;;;;5060531;28;20063;-84
2021/11/28 01:11:23;;;;;;;31.52;21.33;;;;;;;;;;5059178;28;20025;-84
2021/11/28 01:13:50;;;;;;;36.22;21.85;;;;;;;;;;5059922;28;20449;-84
2021/11/28 01:16:16;;;;;;;30.13;21.90;;;;;;;;;;5059047;28;20025;-84
2021/11/28 01:18:42;;;;;;;32.15;22.42;;;;;;;;;;5058903;28;20114;-83
2021/11/28 01:21:08;;;;;;;38.05;24.88;;;;;;;;;;5059592;28;20032;-84
2021/11/28 01:23:34;;;;;;;47.10;28.60;;;;;;;;;;5058706;28;20057;-84
2021/11/28 01:26:00;;;;;;;45.05;28.48;;;;;;;;;;5059844;28;20036;-83
2021/11/28 01:28:26;;;;;;;51.75;30.23;;;;;;;;;;5058507;28;20476;-84
2021/11/28 01:30:52;;;;;;;49.10;30.75;;;;;;;;;;5059705;28;20070;-84
2021/11/28 01:33:18;;;;;;;48.63;31.10;;;;;;;;;;5059647;28;20025;-84
2021/11/28 01:35:44;;;;;;;49.67;31.55;;;;;;;;;;5059584;28;20025;-83
2021/11/28 01:38:11;;;;;;;49.00;29.77;;;;;;;;;;5059582;28;20044;-84
2021/11/28 01:43:40;;;;;;;46.75;30.23;;;;;;;;;;5059730;28;20024;-84
2021/11/28 01:46:06;;;;;;;42.33;28.20;;;;;;;;;;5058482;28;20411;-84
2021/11/28 01:48:34;;;;;;;41.40;28.58;;;;;;;;;;5059409;28;20021;-84
2021/11/28 01:51:02;;;;;;;43.80;29.48;;;;;;;;;;5059321;28;20199;-84
2021/11/28 01:53:28;;;;;;;44.97;29.50;;;;;;;;;;5059130;28;20486;-84
2021/11/28 01:58:59;;;;;;;41.53;28.35;;;;;;;;;;5059483;28;20079;-84
2021/11/28 02:01:25;;;;;;;41.20;28.60;;;;;;;;;;5059287;28;20052;-84
2021/11/28 02:03:51;;;;;;;40.22;27.58;;;;;;;;;;5059188;28;20025;-85
2021/11/28 02:06:18;;;;;;;39.10;28.83;;;;;;;;;;5058234;28;20106;-84
2021/11/28 02:11:48;;;;;;;42.90;29.00;;;;;;;;;;5059379;28;20040;-84
2021/11/28 02:14:15;;;;;;;41.97;28.02;;;;;;;;;;5059240;28;20025;-84
2021/11/28 02:16:41;;;;;;;43.45;29.00;;;;;;;;;;5058109;28;20300;-85
2021/11/28 02:19:07;;;;;;;41.75;28.75;;;;;;;;;;5057948;28;20120;-83
2021/11/28 02:21:33;;;;;;;39.55;28.27;;;;;;;;;;5057868;28;20025;-84
2021/11/28 02:24:05;;;;;;;40.42;27.90;;;;;;;;;;5058670;28;20112;-86
2021/11/28 02:26:31;;;;;;;38.90;27.33;;;;;;;;;;5058643;28;20024;-85
2021/11/28 02:28:58;;;;;;;42.17;27.50;;;;;;;;;;5058552;28;20021;-84
2021/11/28 02:31:24;;;;;;;40.95;26.98;;;;;;;;;;5057702;28;20067;-84
2021/11/28 02:33:50;;;;;;;41.65;27.77;;;;;;;;;;5057902;28;20418;-85
2021/11/28 02:36:18;;;;;;;40.95;27.98;;;;;;;;;;5058563;28;20104;-85
2021/11/28 02:38:44;;;;;;;36.90;26.70;;;;;;;;;;5058645;28;20021;-84
2021/11/28 02:44:15;;;;;;;39.28;25.92;;;;;;;;;;5058632;28;20433;-85
2021/11/28 02:46:42;;;;;;;37.35;25.42;;;;;;;;;;5058674;28;20296;-85
2021/11/28 02:49:08;;;;;;;38.28;25.73;;;;;;;;;;5057307;28;20043;-84
2021/11/28 02:51:35;;;;;;;37.72;25.92;;;;;;;;;;5057257;28;20053;-84
2021/11/28 02:54:20;;;;;;;36.30;25.40;;;;;;;;;;5057954;28;20442;-84
2021/11/28 02:56:47;;;;;;;35.90;24.27;;;;;;;;;;5057150;28;20033;-84
2021/11/28 02:59:13;;;;;;;35.35;25.45;;;;;;;;;;5058347;28;20025;-84
2021/11/28 03:01:39;;;;;;;37.25;24.85;;;;;;;;;;5058035;28;20111;-84
2021/11/28 03:04:06;;;;;;;37.63;26.30;;;;;;;;;;5057972;28;20013;-84
2021/11/28 03:06:32;;;;;;;35.35;25.58;;;;;;;;;;5058004;28;20456;-84
2021/11/28 03:08:58;;;;;;;36.88;25.55;;;;;;;;;;5057949;28;20025;-84
2021/11/28 03:11:43;;;;;;;37.80;24.98;;;;;;;;;;5058218;28;20086;-85
2021/11/28 03:14:09;;;;;;;37.28;25.00;;;;;;;;;;5056933;28;20025;-84
2021/11/28 03:16:37;;;;;;;36.67;24.63;;;;;;;;;;5058054;28;20052;-86
2021/11/28 03:19:03;;;;;;;35.42;24.58;;;;;;;;;;5056832;28;20024;-84
2021/11/28 03:21:30;;;;;;;36.42;24.98;;;;;;;;;;5057688;28;20032;-84
2021/11/28 03:23:57;;;;;;;39.10;26.42;;;;;;;;;;5057198;28;20028;-84
2021/11/28 03:26:26;;;;;;;37.30;25.23;;;;;;;;;;5057490;28;20059;-85
2021/11/28 03:28:52;;;;;;;38.63;25.17;;;;;;;;;;5057640;28;20029;-85
2021/11/28 03:31:19;;;;;;;38.53;25.52;;;;;;;;;;5057660;28;20323;-84
2021/11/28 03:33:45;;;;;;;36.47;24.52;;;;;;;;;;5057695;28;20071;-84
2021/11/28 03:36:14;;;;;;;39.25;25.45;;;;;;;;;;5056502;28;20032;-85
2021/11/28 03:38:41;;;;;;;33.40;22.98;;;;;;;;;;5056514;28;20047;-85
2021/11/28 03:41:08;;;;;;;32.58;22.38;;;;;;;;;;5057321;28;20029;-84
2021/11/28 03:43:34;;;;;;;29.70;20.33;;;;;;;;;;5057383;28;20400;-84
2021/11/28 03:46:00;;;;;;;35.42;21.08;;;;;;;;;;5056687;28;20095;-84
2021/11/28 03:48:26;;;;;;;31.02;19.75;;;;;;;;;;5057350;28;20021;-84
2021/11/28 03:50:53;;;;;;;29.27;20.70;;;;;;;;;;5056569;28;20028;-84
2021/11/28 03:53:19;;;;;;;31.05;20.92;;;;;;;;;;5057063;28;20036;-85
2021/11/28 04:01:52;;;;;;;27.63;19.30;;;;;;;;;;5057310;28;20450;-84
2021/11/28 04:04:18;;;;;;;28.70;19.95;;;;;;;;;;5057173;28;20449;-84
2021/11/28 04:06:44;;;;;;;27.63;19.25;;;;;;;;;;5056184;28;20033;-84
2021/11/28 04:09:11;;;;;;;27.48;18.15;;;;;;;;;;5057331;28;20025;-85
2021/11/28 04:11:38;;;;;;;24.70;17.25;;;;;;;;;;5057350;28;20029;-84
2021/11/28 04:14:04;;;;;;;23.15;16.70;;;;;;;;;;5057284;28;20120;-84
2021/11/28 04:16:30;;;;;;;24.80;17.63;;;;;;;;;;5055394;28;20456;-82
2021/11/28 04:18:56;;;;;;;24.73;16.52;;;;;;;;;;5056537;28;20044;-82
2021/11/28 04:21:22;;;;;;;25.70;16.35;;;;;;;;;;5055678;28;20112;-82
2021/11/28 04:23:49;;;;;;;44.28;29.67;;;;;;;;;;5055581;28;20035;-82
2021/11/28 04:26:15;;;;;;;49.03;33.03;;;;;;;;;;5056823;28;20035;-81
2021/11/28 04:28:41;;;;;;;66.40;42.90;;;;;;;;;;5056222;28;20041;-81
2021/11/28 04:31:07;;;;;;;37.28;25.10;;;;;;;;;;5056636;28;20339;-82
2021/11/28 04:33:34;;;;;;;30.75;21.35;;;;;;;;;;5055662;28;20041;-82
2021/11/28 04:36:00;;;;;;;26.23;17.83;;;;;;;;;;5056787;28;20112;-82
2021/11/28 04:38:26;;;;;;;93.43;56.63;;;;;;;;;;5056364;28;20040;-81
2021/11/28 04:41:10;;;;;;;194.02;124.43;;;;;;;;;;5055613;28;20421;-82
2021/11/28 04:43:36;;;;;;;106.05;73.13;;;;;;;;;;5055518;28;20152;-82
2021/11/28 04:46:03;;;;;;;97.05;68.28;;;;;;;;;;5055560;28;20060;-82
2021/11/28 04:48:29;;;;;;;76.28;54.83;;;;;;;;;;5056530;28;20021;-81
2021/11/28 04:50:55;;;;;;;52.40;34.90;;;;;;;;;;5055480;28;20033;-81
2021/11/28 04:53:21;;;;;;;38.80;25.08;;;;;;;;;;5056471;28;20024;-82
2021/11/28 04:55:48;;;;;;;27.98;19.55;;;;;;;;;;5056877;28;20036;-82
2021/11/28 04:58:14;;;;;;;26.10;16.88;;;;;;;;;;5059917;28;20091;-82
2021/11/28 05:00:40;;;;;;;27.42;18.40;;;;;;;;;;5060106;28;20024;-82
2021/11/28 05:03:06;;;;;;;29.70;19.55;;;;;;;;;;5060331;28;20043;-82
2021/11/28 05:05:32;;;;;;;33.40;20.73;;;;;;;;;;5060230;28;20025;-82
2021/11/28 05:07:59;;;;;;;53.00;27.80;;;;;;;;;;5058906;28;20083;-82
2021/11/28 05:10:25;;;;;;;54.05;30.05;;;;;;;;;;5059828;28;20111;-82
2021/11/28 05:12:51;;;;;;;46.97;27.55;;;;;;;;;;5059783;28;20024;-82
2021/11/28 05:15:18;;;;;;;33.85;20.52;;;;;;;;;;5059928;28;20035;-82
2021/11/28 05:17:44;;;;;;;31.33;19.58;;;;;;;;;;5058390;28;20057;-82
2021/11/28 05:20:10;;;;;;;28.67;18.73;;;;;;;;;;5059877;28;20039;-82
2021/11/28 05:22:36;;;;;;;31.23;17.55;;;;;;;;;;5059739;28;20021;-82
2021/11/28 05:27:49;;;;;;;33.78;20.85;;;;;;;;;;5059292;28;20172;-83
2021/11/28 05:30:16;;;;;;;29.83;19.13;;;;;;;;;;5059518;28;20017;-82
2021/11/28 05:32:42;;;;;;;21.25;14.15;;;;;;;;;;5041905;28;20056;-82
2021/11/28 05:35:09;;;;;;;16.63;10.50;;;;;;;;;;5059745;28;20095;-82
2021/11/28 05:37:35;;;;;;;16.13;10.63;;;;;;;;;;5059269;28;20105;-83
2021/11/28 05:40:01;;;;;;;18.73;11.80;;;;;;;;;;5059135;28;20116;-82
2021/11/28 05:42:27;;;;;;;21.98;14.00;;;;;;;;;;5041646;28;20044;-82
2021/11/28 05:44:53;;;;;;;102.72;43.83;;;;;;;;;;5059083;28;20024;-82
2021/11/28 05:47:19;;;;;;;258.38;94.78;;;;;;;;;;5040619;28;20363;-82
2021/11/28 05:49:45;;;;;;;262.35;98.57;;;;;;;;;;5059006;28;20056;-82
2021/11/28 05:52:11;;;;;;;261.85;105.55;;;;;;;;;;5058949;28;20025;-82
2021/11/28 05:54:38;;;;;;;193.13;85.25;;;;;;;;;;5058636;28;20461;-82
2021/11/28 05:57:41;;;;;;;137.10;67.47;;;;;;;;;;5058646;28;20033;-82
2021/11/28 06:00:09;;;;;;;62.95;37.08;;;;;;;;;;5058762;28;20025;-82
2021/11/28 06:02:36;;;;;;;30.20;20.02;;;;;;;;;;5059191;28;20021;-83
2021/11/28 06:05:03;;;;;;;27.20;18.00;;;;;;;;;;5058700;28;20021;-82
2021/11/28 06:07:29;;;;;;;26.33;17.25;;;;;;;;;;5058225;28;20025;-82
2021/11/28 06:09:55;;;;;;;24.65;17.20;;;;;;;;;;5058079;28;20021;-82
2021/11/28 06:12:21;;;;;;;27.13;17.48;;;;;;;;;;5058516;28;20040;-81
2021/11/28 06:14:47;;;;;;;31.67;18.63;;;;;;;;;;5058577;28;20021;-82
2021/11/28 06:17:13;;;;;;;38.80;24.42;;;;;;;;;;5039468;28;20052;-82
2021/11/28 06:19:40;;;;;;;31.35;20.05;;;;;;;;;;5058700;28;20025;-82
2021/11/28 06:22:08;;;;;;;20.30;14.45;;;;;;;;;;5058365;28;20135;-82
2021/11/28 06:24:35;;;;;;;23.80;15.65;;;;;;;;;;5058637;28;20078;-83
2021/11/28 06:27:01;;;;;;;21.98;16.58;;;;;;;;;;5057834;28;20223;-82
2021/11/28 06:29:29;;;;;;;25.80;18.00;;;;;;;;;;5057597;28;20021;-81
2021/11/28 06:31:55;;;;;;;23.92;17.30;;;;;;;;;;5058511;28;20104;-81
2021/11/28 06:34:21;;;;;;;31.45;18.98;;;;;;;;;;5058648;28;20029;-81
2021/11/28 06:36:47;;;;;;;37.03;21.52;;;;;;;;;;5040013;28;20095;-80
2021/11/28 06:39:13;;;;;;;39.95;22.40;;;;;;;;;;5058081;28;20036;-82
2021/11/28 06:41:39;;;;;;;32.42;21.15;;;;;;;;;;5039962;28;20043;-81
2021/11/28 06:44:05;;;;;;;35.45;21.42;;;;;;;;;;5058330;28;20354;-81
2021/11/28 06:46:31;;;;;;;46.13;22.92;;;;;;;;;;5058005;28;20021;-81
2021/11/28 06:48:57;;;;;;;31.88;21.15;;;;;;;;;;5057397;28;20040;-81
2021/11/28 06:51:23;;;;;;;29.90;19.77;;;;;;;;;;5057868;28;20025;-81
2021/11/28 06:53:50;;;;;;;34.80;23.00;;;;;;;;;;5057502;28;20319;-81
2021/11/28 06:56:16;;;;;;;37.22;23.63;;;;;;;;;;5057917;28;20124;-81
2021/11/28 06:58:42;;;;;;;110.25;54.53;;;;;;;;;;5039267;28;20047;-81
2021/11/28 07:01:08;;;;;;;106.20;57.42;;;;;;;;;;5057550;28;20035;-81
2021/11/28 07:03:34;;;;;;;78.82;48.67;;;;;;;;;;5057558;28;20017;-82
2021/11/28 07:06:00;;;;;;;48.67;30.17;;;;;;;;;;5057717;28;20021;-82
2021/11/28 07:08:26;;;;;;;35.53;24.65;;;;;;;;;;5057153;28;20029;-82
2021/11/28 07:11:02;;;;;;;41.60;26.92;;;;;;;;;;5039607;28;20323;-82
2021/11/28 07:13:28;;;;;;;73.85;46.25;;;;;;;;;;5057749;28;20029;-82
2021/11/28 07:15:54;;;;;;;67.47;40.53;;;;;;;;;;5057350;28;20402;-82
2021/11/28 07:18:20;;;;;;;45.53;31.25;;;;;;;;;;5057742;28;20319;-83
2021/11/28 07:20:47;;;;;;;49.15;30.73;;;;;;;;;;5039241;28;20482;-83
2021/11/28 07:23:13;;;;;;;48.78;31.30;;;;;;;;;;5057459;28;20033;-82
2021/11/28 07:25:39;;;;;;;44.85;29.20;;;;;;;;;;5057441;28;20025;-82
2021/11/28 07:28:05;;;;;;;45.05;28.88;;;;;;;;;;5057007;28;20049;-81
2021/11/28 07:30:31;;;;;;;53.95;35.63;;;;;;;;;;5057226;28;20061;-82
2021/11/28 07:32:58;;;;;;;44.55;28.38;;;;;;;;;;5039652;28;20037;-82
2021/11/28 07:35:24;;;;;;;39.90;26.00;;;;;;;;;;5038741;28;20060;-83
2021/11/28 07:37:51;;;;;;;40.17;27.35;;;;;;;;;;5057229;28;20051;-82
2021/11/28 07:40:17;;;;;;;40.78;28.35;;;;;;;;;;5057182;28;20025;-82
2021/11/28 07:42:44;;;;;;;37.88;23.95;;;;;;;;;;5057120;28;20025;-82
2021/11/28 07:45:11;;;;;;;32.33;23.15;;;;;;;;;;5056745;28;20048;-82
2021/11/28 07:47:37;;;;;;;34.45;24.02;;;;;;;;;;5057350;28;20021;-82
2021/11/28 07:50:05;;;;;;;32.83;23.55;;;;;;;;;;5057258;28;20017;-82
2021/11/28 07:52:31;;;;;;;30.55;21.63;;;;;;;;;;5056918;28;20031;-82
2021/11/28 07:54:57;;;;;;;34.22;22.52;;;;;;;;;;5056077;28;20053;-82
2021/11/28 07:57:23;;;;;;;33.47;23.52;;;;;;;;;;5056861;28;20025;-82
2021/11/28 07:59:49;;;;;;;38.47;25.25;;;;;;;;;;5039063;28;20030;-82
2021/11/28 08:02:18;;;;;;;45.92;29.52;;;;;;;;;;5056987;28;20025;-82
2021/11/28 08:04:44;;;;;;;49.03;31.80;;;;;;;;;;5056880;28;20021;-82
2021/11/28 08:07:10;;;;;;;44.97;30.90;;;;;;;;;;5056760;28;20116;-82
2021/11/28 08:09:36;;;;;;;45.88;29.52;;;;;;;;;;5056467;28;20021;-82
2021/11/28 08:15:43;;;;;;;76.05;52.10;;;;;;;;;;5056887;28;20326;-82
2021/11/28 08:18:09;;;;;;;102.40;65.40;;;;;;;;;;5056699;28;20318;-82
2021/11/28 08:20:35;;;;;;;93.05;63.63;;;;;;;;;;5056739;28;20100;-82
2021/11/28 08:23:03;;;;;;;66.57;44.75;;;;;;;;;;5056859;28;20037;-82
2021/11/28 08:25:29;;;;;;;57.50;40.42;;;;;;;;;;5056460;28;20029;-82
2021/11/28 08:27:55;;;;;;;56.00;37.53;;;;;;;;;;5056223;28;20128;-81
2021/11/28 08:30:21;;;;;;;43.88;31.38;;;;;;;;;;5038594;28;20048;-81
2021/11/28 08:32:48;;;;;;;47.30;31.77;;;;;;;;;;5059228;28;20025;-81
2021/11/28 08:35:15;;;;;;;46.90;29.83;;;;;;;;;;5042434;28;20037;-81
2021/11/28 08:37:41;;;;;;;42.70;28.80;;;;;;;;;;5042504;28;20029;-81
2021/11/28 08:40:08;;;;;;;46.88;29.02;;;;;;;;;;5060513;28;20048;-82
2021/11/28 08:42:35;;;;;;;40.85;27.05;;;;;;;;;;5060248;28;20047;-81
2021/11/28 08:45:02;;;;;;;40.70;27.42;;;;;;;;;;5060063;28;20032;-81
2021/11/28 08:47:28;;;;;;;43.65;27.88;;;;;;;;;;5060660;28;20048;-82
2021/11/28 08:49:54;;;;;;;45.90;29.35;;;;;;;;;;5060179;28;20032;-82
2021/11/28 08:52:20;;;;;;;43.15;27.23;;;;;;;;;;5059978;28;20021;-82
2021/11/28 08:54:46;;;;;;;49.63;29.10;;;;;;;;;;5060070;28;20466;-82
2021/11/28 08:57:31;;;;;;;53.65;32.67;;;;;;;;;;5060310;28;20403;-82
2021/11/28 08:59:57;;;;;;;57.17;34.33;;;;;;;;;;5059965;28;20353;-83
2021/11/28 09:02:23;;;;;;;56.70;31.27;;;;;;;;;;5059900;28;20028;-82
2021/11/28 09:04:50;;;;;;;56.47;32.95;;;;;;;;;;5059862;28;20025;-81
2021/11/28 09:07:17;;;;;;;51.05;30.40;;;;;;;;;;5059825;28;20017;-81
2021/11/28 09:09:43;;;;;;;51.25;30.60;;;;;;;;;;5042201;28;20037;-81
2021/11/28 09:12:09;;;;;;;48.38;30.00;;;;;;;;;;5059639;28;20418;-81
2021/11/28 09:14:35;;;;;;;41.28;26.77;;;;;;;;;;5059982;28;20017;-81
2021/11/28 09:17:02;;;;;;;41.50;26.15;;;;;;;;;;5059251;28;20052;-81
2021/11/28 09:22:11;;;;;;;47.45;27.38;;;;;;;;;;5059508;28;20060;-81
2021/11/28 09:24:38;;;;;;;44.50;27.05;;;;;;;;;;5059563;28;20021;-81
2021/11/28 09:27:10;;;;;;;40.03;26.13;;;;;;;;;;5059409;28;20415;-81
2021/11/28 09:29:37;;;;;;;40.08;27.35;;;;;;;;;;5041904;28;20410;-82
2021/11/28 09:32:04;;;;;;;39.25;26.40;;;;;;;;;;5059025;28;20051;-82
2021/11/28 09:34:30;;;;;;;37.03;24.52;;;;;;;;;;5040449;28;20116;-81
2021/11/28 09:36:56;;;;;;;44.38;23.55;;;;;;;;;;5057321;28;20040;-82
2021/11/28 09:39:22;;;;;;;40.15;25.25;;;;;;;;;;5058591;28;20021;-84
2021/11/28 09:41:51;;;;;;;42.33;25.30;;;;;;;;;;5058405;28;20025;-81
2021/11/28 09:44:17;;;;;;;36.70;24.35;;;;;;;;;;5058124;28;20025;-81
2021/11/28 09:46:45;;;;;;;37.15;23.90;;;;;;;;;;5058928;28;20021;-80
2021/11/28 09:49:12;;;;;;;38.25;24.30;;;;;;;;;;5027956;28;20065;-81
2021/11/28 09:51:39;;;;;;;33.08;21.20;;;;;;;;;;5058933;28;20033;-82
2021/11/28 09:54:06;;;;;;;40.33;24.65;;;;;;;;;;5041097;28;20490;-81
2021/11/28 09:56:40;;;;;;;37.10;23.42;;;;;;;;;;5059173;28;20326;-82
2021/11/28 09:59:26;;;;;;;37.85;22.88;;;;;;;;;;5040302;28;20032;-81
2021/11/28 10:01:53;;;;;;;29.17;17.95;;;;;;;;;;5036574;28;20036;-81
2021/11/28 10:04:19;;;;;;;25.85;17.38;;;;;;;;;;5057445;28;20033;-81
2021/11/28 10:06:47;;;;;;;24.60;16.13;;;;;;;;;;5058016;28;20109;-77
2021/11/28 10:09:13;;;;;;;25.80;16.40;;;;;;;;;;5058421;28;20032;-78
2021/11/28 10:11:43;;;;;;;25.88;15.55;;;;;;;;;;5058522;28;20029;-77
2021/11/28 10:14:10;;;;;;;22.52;14.52;;;;;;;;;;5058419;28;20112;-78
2021/11/28 10:16:36;;;;;;;21.15;14.57;;;;;;;;;;5040747;28;20060;-77
2021/11/28 10:19:02;;;;;;;19.70;13.52;;;;;;;;;;5058067;28;20024;-78
2021/11/28 10:21:29;;;;;;;21.00;13.00;;;;;;;;;;5058246;28;20024;-78
2021/11/28 10:24:11;;;;;;;19.05;12.35;;;;;;;;;;5058312;28;20380;-78
2021/11/28 10:26:52;;;;;;;16.95;10.82;;;;;;;;;;5058295;28;20025;-78
2021/11/28 10:29:19;;;;;;;22.35;11.65;;;;;;;;;;5040317;28;20029;-78
2021/11/28 10:31:49;;;;;;;14.63;9.30;;;;;;;;;;5058060;28;20550;-78
2021/11/28 10:34:29;;;;;;;18.40;10.63;;;;;;;;;;5057957;28;20454;-77
2021/11/28 10:37:09;;;;;;;16.98;10.55;;;;;;;;;;5057847;28;20476;-77
2021/11/28 10:39:55;;;;;;;18.52;10.93;;;;;;;;;;5058091;28;20025;-77
2021/11/28 10:42:21;;;;;;;22.45;12.43;;;;;;;;;;5040120;28;20040;-77
2021/11/28 10:45:00;;;;;;;18.83;10.15;;;;;;;;;;5057503;28;20123;-78
2021/11/28 10:47:44;;;;;;;16.13;9.77;;;;;;;;;;5057821;28;20101;-78
2021/11/28 10:50:10;;;;;;;28.05;13.60;;;;;;;;;;5057836;28;20041;-78
2021/11/28 10:52:36;;;;;;;20.83;11.50;;;;;;;;;;5039825;28;20040;-78
2021/11/28 10:55:19;;;;;;;22.10;12.57;;;;;;;;;;5057169;28;20051;-77
2021/11/28 10:57:46;;;;;;;21.80;12.30;;;;;;;;;;5057621;28;20072;-78
2021/11/28 11:00:13;;;;;;;20.48;10.25;;;;;;;;;;5057854;28;20322;-77
2021/11/28 11:02:41;;;;;;;23.05;11.48;;;;;;;;;;5057412;28;20314;-79
2021/11/28 11:05:10;;;;;;;13.93;8.38;;;;;;;;;;5057612;28;20359;-78
2021/11/28 11:07:43;;;;;;;12.88;7.85;;;;;;;;;;5057649;28;20021;-81
2021/11/28 11:10:16;;;;;;;11.57;7.82;;;;;;;;;;5039775;28;20052;-80
2021/11/28 11:12:43;;;;;;;15.45;8.27;;;;;;;;;;5039659;28;20366;-80
2021/11/28 11:15:09;;;;;;;15.63;8.65;;;;;;;;;;5039782;28;20036;-81
2021/11/28 11:17:38;;;;;;;11.63;7.72;;;;;;;;;;5039448;28;20025;-81
2021/11/28 11:20:05;;;;;;;12.00;6.60;;;;;;;;;;5056142;28;20075;-81
2021/11/28 11:22:32;;;;;;;14.57;7.90;;;;;;;;;;5057473;28;20017;-85
2021/11/28 11:24:58;;;;;;;15.73;9.48;;;;;;;;;;5056964;28;20021;-80
2021/11/28 11:27:25;;;;;;;14.23;6.75;;;;;;;;;;5056995;28;20045;-81
2021/11/28 11:29:54;;;;;;;12.63;6.95;;;;;;;;;;5057460;28;20025;-81
2021/11/28 11:32:22;;;;;;;11.63;7.32;;;;;;;;;;5057235;28;20021;-80
2021/11/28 11:34:52;;;;;;;17.20;9.00;;;;;;;;;;5057424;28;20098;-81
2021/11/28 11:37:19;;;;;;;16.48;9.15;;;;;;;;;;5057108;28;20039;-81
2021/11/28 11:39:46;;;;;;;13.90;7.78;;;;;;;;;;5057107;28;20025;-82
2021/11/28 11:42:17;;;;;;;18.00;9.18;;;;;;;;;;5056819;28;20312;-80
2021/11/28 11:44:44;;;;;;;23.15;11.93;;;;;;;;;;5056915;28;20024;-80
2021/11/28 11:47:10;;;;;;;24.08;12.85;;;;;;;;;;5052600;28;20052;-81
2021/11/28 11:49:41;;;;;;;21.00;11.35;;;;;;;;;;5056364;28;20029;-78
2021/11/28 11:52:07;;;;;;;29.25;12.65;;;;;;;;;;5056214;28;20473;-78
2021/11/28 11:54:40;;;;;;;26.73;12.80;;;;;;;;;;5038843;28;20415;-78
2021/11/28 11:57:23;;;;;;;29.55;15.13;;;;;;;;;;5056391;28;20029;-79
2021/11/28 12:00:02;;;;;;;26.63;15.13;;;;;;;;;;5056244;28;20025;-78
2021/11/28 12:02:32;;;;;;;21.55;12.00;;;;;;;;;;5056287;28;20382;-79
2021/11/28 12:04:59;;;;;;;25.33;10.25;;;;;;;;;;5056417;28;20067;-78
2021/11/28 12:07:44;;;;;;;20.70;9.88;;;;;;;;;;5059189;28;20287;-78
2021/11/28 12:10:28;;;;;;;25.42;12.43;;;;;;;;;;5043023;28;20021;-78
2021/11/28 12:12:54;;;;;;;21.67;11.18;;;;;;;;;;5042770;28;20060;-78
2021/11/28 12:15:25;;;;;;;21.63;12.27;;;;;;;;;;5060641;28;20025;-78
2021/11/28 12:17:52;;;;;;;17.77;9.57;;;;;;;;;;5060397;28;20314;-78
2021/11/28 12:20:38;;;;;;;16.55;9.13;;;;;;;;;;5042038;28;20164;-79
2021/11/28 12:23:04;;;;;;;14.00;7.53;;;;;;;;;;5041068;28;20072;-78
2021/11/28 12:25:36;;;;;;;19.42;8.25;;;;;;;;;;5050035;28;20414;-78
2021/11/28 12:28:20;;;;;;;17.40;10.27;;;;;;;;;;5041909;28;20040;-77
2021/11/28 12:30:58;;;;;;;18.02;9.32;;;;;;;;;;5059509;28;20024;-77
2021/11/28 12:34:02;;;;;;;16.85;9.10;;;;;;;;;;5059558;28;20052;-78
2021/11/28 12:36:34;;;;;;;15.85;8.40;;;;;;;;;;4955483;28;20130;-83
2021/11/28 12:39:02;;;;;;;12.60;7.18;;;;;;;;;;4932908;29;20046;-77
2021/11/28 12:41:51;;;;;;;10.63;6.03;;;;;;;;;;4949183;29;20031;-77
2021/11/28 12:44:24;;;;;;;14.50;5.82;;;;;;;;;;4944565;29;20038;-77
2021/11/28 12:46:50;;;;;;;15.75;7.65;;;;;;;;;;4949058;29;20031;-77
2021/11/28 12:49:45;;;;;;;14.07;7.43;;;;;;;;;;4959119;29;20043;-77
2021/11/28 12:52:17;;;;;;;15.95;7.70;;;;;;;;;;4956666;29;20334;-77
2021/11/28 12:55:07;;;;;;;17.17;7.50;;;;;;;;;;4942369;29;20028;-78
2021/11/28 12:57:33;;;;;;;14.98;6.70;;;;;;;;;;4940117;29;20192;-77
2021/11/28 13:00:18;;;;;;;11.90;7.00;;;;;;;;;;4948022;29;20050;-78
2021/11/28 13:02:44;;;;;;;14.13;6.97;;;;;;;;;;4943095;28;20318;-78
2021/11/28 13:05:32;;;;;;;12.65;7.43;;;;;;;;;;4958819;29;20051;-77
2021/11/28 13:08:01;;;;;;;14.55;7.72;;;;;;;;;;4942740;29;20039;-77
2021/11/28 13:10:31;;;;;;;10.63;6.57;;;;;;;;;;5001186;28;20029;-77
2021/11/28 13:13:03;;;;;;;10.15;5.90;;;;;;;;;;5056380;28;20033;-77
2021/11/28 13:15:29;;;;;;;;;;;;;;;;;;5059675;28;20028;-77
2021/11/28 13:17:56;;;;;;;11.52;5.88;;;;;;;;;;5058891;28;19904;-78
2021/11/28 13:20:22;;;;;;;11.57;6.50;;;;;;;;;;5058856;28;20036;-78
2021/11/28 13:22:49;;;;;;;10.30;5.35;;;;;;;;;;5058998;28;20033;-77
2021/11/28 13:25:43;;;;;;;9.30;4.85;;;;;;;;;;5058828;28;20132;-78
2021/11/28 13:28:14;;;;;;;9.63;6.03;;;;;;;;;;5055099;28;20056;-78
2021/11/28 13:30:51;;;;;;;10.52;5.82;;;;;;;;;;5058549;28;20067;-77
2021/11/28 13:33:19;;;;;;;10.90;5.78;;;;;;;;;;5041124;28;20051;-78
2021/11/28 13:35:54;;;;;;;11.52;6.55;;;;;;;;;;5040332;28;20039;-77
2021/11/28 13:38:22;;;;;;;10.68;6.13;;;;;;;;;;5058420;28;20036;-77
2021/11/28 13:41:06;;;;;;;14.35;8.35;;;;;;;;;;5058484;28;20029;-78
2021/11/28 13:43:34;;;;;;;16.48;9.23;;;;;;;;;;5039878;28;20083;-78
2021/11/28 13:46:00;;;;;;;33.63;17.40;;;;;;;;;;5040994;28;20028;-77
2021/11/28 13:48:46;;;;;;;28.83;16.92;;;;;;;;;;5058696;28;20021;-76
2021/11/28 13:51:13;;;;;;;15.63;9.85;;;;;;;;;;4941807;29;20063;-77
2021/11/28 13:54:05;;;;;;;14.90;9.13;;;;;;;;;;4957894;29;20562;-77
2021/11/28 13:56:39;;;;;;;15.80;8.50;;;;;;;;;;4955998;29;20134;-77
2021/11/28 13:59:06;;;;;;;16.05;8.52;;;;;;;;;;4958371;29;20031;-77
2021/11/28 14:01:32;;;;;;;18.38;8.77;;;;;;;;;;4958301;29;20440;-78
2021/11/28 14:03:58;;;;;;;19.60;11.00;;;;;;;;;;4958454;29;20038;-78
2021/11/28 14:06:25;;;;;;;34.05;15.23;;;;;;;;;;4942137;29;20027;-78
2021/11/28 14:08:51;;;;;;;90.10;37.75;;;;;;;;;;4957546;29;20039;-78
2021/11/28 14:11:17;;;;;;;49.60;27.15;;;;;;;;;;4942096;29;20333;-78
2021/11/28 14:13:53;;;;;;;53.22;31.83;;;;;;;;;;4948735;28;20040;-78
2021/11/28 14:16:29;;;;;;;58.42;34.67;;;;;;;;;;4940506;29;20127;-77
2021/11/28 14:18:55;;;;;;;23.30;13.20;;;;;;;;;;4938678;29;20034;-78
2021/11/28 14:21:37;;;;;;;24.77;12.98;;;;;;;;;;4922705;29;20036;-78
2021/11/28 14:24:03;;;;;;;37.30;18.23;;;;;;;;;;4938823;29;20095;-78
2021/11/28 14:26:32;;;;;;;37.97;19.33;;;;;;;;;;4949838;29;20122;-78
2021/11/28 14:29:17;;;;;;;64.15;23.15;;;;;;;;;;5020691;28;20041;-78
2021/11/28 14:31:59;;;;;;;19.63;11.43;;;;;;;;;;5037645;28;20022;-78
2021/11/28 14:34:25;;;;;;;50.28;22.13;;;;;;;;;;5037833;28;20026;-78
2021/11/28 14:36:52;;;;;;;43.08;20.48;;;;;;;;;;5052819;28;20399;-77
2021/11/28 14:39:18;;;;;;;29.45;16.38;;;;;;;;;;5057304;28;20028;-77
2021/11/28 14:41:49;;;;;;;106.95;39.58;;;;;;;;;;5039118;28;20041;-77
2021/11/28 14:44:22;;;;;;;50.65;24.10;;;;;;;;;;5057366;28;20466;-77
2021/11/28 14:46:49;;;;;;;42.35;21.13;;;;;;;;;;5057311;28;20076;-77
2021/11/28 14:49:19;;;;;;;35.10;19.88;;;;;;;;;;5057103;28;20021;-77
2021/11/28 14:51:46;;;;;;;41.03;20.52;;;;;;;;;;5057318;28;20029;-78
2021/11/28 14:54:13;;;;;;;35.22;18.10;;;;;;;;;;5039698;28;20025;-77
2021/11/28 14:56:47;;;;;;;29.15;17.55;;;;;;;;;;5039287;28;20079;-77
2021/11/28 14:59:14;;;;;;;31.80;18.75;;;;;;;;;;5057039;28;20036;-77
2021/11/28 15:01:40;;;;;;;39.22;23.50;;;;;;;;;;5057007;28;20053;-78
2021/11/28 15:04:06;;;;;;;61.47;33.72;;;;;;;;;;5056870;28;20084;-78